Plum Tree, Indiana
Current Conditions -  °F | °C
As of 1:55 PM on Monday 20 Oct 2014 (Local Time) from KHHG Reporting Station
Thunderstorm Thunderstorm  
Wind Chill: 58°   Ceiling: 1700
Heat Index: 58°   Visibility: 10mi
Dew Point: 51°   Wind: 8mph
Humidity: 78%   Direction: 240°WSW
Pressure: 29.81"   Gusts: NA
Location:  40.6897°N, 85.3916°W
Report Text: KHHG 201755Z AUTO 24007KT 10SM VCTS OVC017 14/11 A2981 RMK AO2 LTG DSNT SE 60004 T01420105 10142 20095
Loading
Personal Weather Stations






























Interactive Weather Map
Tropical Storm Tracking
New forecast layout! Learn more

10-Day Weather Forecast

Advertisements
Track Severe Weather on mobile